createdAt,value
2018-12-08T00:01:50.297Z,8.64
2018-12-08T00:04:19.339Z,8.60
2018-12-08T00:06:46.855Z,8.63
2018-12-08T00:09:14.383Z,8.53
2018-12-08T00:11:42.493Z,8.51
2018-12-08T00:14:11.111Z,8.52
2018-12-08T00:16:39.992Z,8.53
2018-12-08T00:19:07.516Z,8.46
2018-12-08T00:21:35.026Z,8.44
2018-12-08T00:24:02.537Z,8.44
2018-12-08T00:26:30.022Z,8.44
2018-12-08T00:28:57.645Z,8.43
2018-12-08T00:31:45.198Z,8.46
2018-12-08T00:34:12.968Z,8.45
2018-12-08T00:36:41.390Z,8.42
2018-12-08T00:39:09.046Z,8.40
2018-12-08T00:41:36.668Z,8.40
2018-12-08T00:44:04.494Z,8.35
2018-12-08T00:46:32.113Z,8.39
2018-12-08T00:48:59.650Z,8.38
2018-12-08T00:51:27.177Z,8.29
2018-12-08T00:53:56.803Z,8.23
2018-12-08T00:56:24.328Z,8.21
2018-12-08T00:58:51.850Z,8.21
2018-12-08T01:01:19.412Z,8.25
2018-12-08T01:03:46.960Z,8.29
2018-12-08T01:06:14.507Z,8.29
2018-12-08T01:08:42.237Z,8.24
2018-12-08T01:11:09.762Z,8.30
2018-12-08T01:13:37.241Z,8.19
2018-12-08T01:16:04.772Z,8.13
2018-12-08T01:18:32.312Z,8.14
2018-12-08T01:20:59.862Z,8.23
2018-12-08T01:23:27.435Z,8.23
2018-12-08T01:25:55.015Z,8.19
2018-12-08T01:28:24.375Z,8.18
2018-12-08T01:30:53.325Z,8.13
2018-12-08T01:33:20.863Z,8.12
2018-12-08T01:35:48.422Z,8.10
2018-12-08T01:38:16.053Z,8.08
2018-12-08T01:40:43.555Z,8.09
2018-12-08T01:43:11.106Z,8.08
2018-12-08T01:45:38.617Z,8.06
2018-12-08T01:48:06.165Z,8.07
2018-12-08T01:50:33.685Z,8.04
2018-12-08T01:53:01.190Z,8.02
2018-12-08T01:55:28.842Z,8.00
2018-12-08T01:57:56.527Z,8.05
2018-12-08T02:00:24.314Z,7.97
2018-12-08T02:02:52.988Z,8.01
2018-12-08T02:05:20.541Z,8.06
2018-12-08T02:07:48.092Z,8.01
2018-12-08T02:10:15.656Z,7.97
2018-12-08T02:12:43.249Z,7.85
2018-12-08T02:15:11.519Z,7.81
2018-12-08T02:17:39.068Z,7.86
2018-12-08T02:20:06.798Z,7.91
2018-12-08T02:22:34.332Z,7.92
2018-12-08T02:25:02.902Z,7.92
2018-12-08T02:27:30.613Z,7.91
2018-12-08T02:29:58.236Z,7.91
2018-12-08T02:32:26.706Z,7.86
2018-12-08T02:34:54.268Z,7.82
2018-12-08T02:37:21.966Z,7.82
2018-12-08T02:39:49.484Z,7.84
2018-12-08T02:42:17.116Z,7.88
2018-12-08T02:44:45.473Z,7.81
2018-12-08T02:47:12.995Z,7.80
2018-12-08T02:49:40.489Z,7.75
2018-12-08T02:52:08.039Z,7.78
2018-12-08T02:54:35.611Z,7.78
2018-12-08T02:57:03.071Z,7.78
2018-12-08T02:59:30.665Z,7.79
2018-12-08T03:01:58.379Z,7.77
2018-12-08T03:04:25.922Z,7.82
2018-12-08T03:06:53.451Z,7.86
2018-12-08T03:09:20.965Z,7.81
2018-12-08T03:11:48.834Z,7.78
2018-12-08T03:14:16.354Z,7.80
2018-12-08T03:16:43.940Z,7.77
2018-12-08T03:19:11.506Z,7.79
2018-12-08T03:21:39.103Z,7.78
2018-12-08T03:24:06.622Z,7.85
2018-12-08T03:26:34.290Z,7.87
2018-12-08T03:29:01.810Z,7.86
2018-12-08T03:31:29.968Z,7.89
2018-12-08T03:33:57.617Z,7.97
2018-12-08T03:36:25.190Z,7.99
2018-12-08T03:38:52.709Z,8.06
2018-12-08T03:41:20.202Z,8.07
2018-12-08T03:43:47.710Z,8.08
2018-12-08T03:46:15.320Z,8.09
2018-12-08T03:48:42.808Z,8.15
2018-12-08T03:51:10.680Z,8.15
2018-12-08T03:53:38.172Z,8.14
2018-12-08T03:56:05.712Z,8.14
2018-12-08T03:58:33.215Z,8.14
2018-12-08T04:01:00.786Z,8.13
2018-12-08T04:03:28.369Z,8.09
2018-12-08T04:05:55.953Z,8.10
2018-12-08T04:08:23.624Z,8.04
2018-12-08T04:10:51.174Z,8.00
2018-12-08T04:13:18.694Z,8.02
2018-12-08T04:15:46.268Z,7.98
2018-12-08T04:18:13.780Z,8.05
2018-12-08T04:20:41.353Z,8.06
2018-12-08T04:23:08.912Z,8.10
2018-12-08T04:25:36.518Z,8.04
2018-12-08T04:28:04.080Z,8.02
2018-12-08T04:30:32.450Z,8.05
2018-12-08T04:33:00.131Z,8.05
2018-12-08T04:35:27.666Z,8.04
2018-12-08T04:37:55.247Z,8.12
2018-12-08T04:40:22.878Z,8.15
2018-12-08T04:42:51.334Z,8.10
2018-12-08T04:45:18.900Z,8.09
2018-12-08T04:47:46.415Z,8.11
2018-12-08T04:50:13.996Z,8.12
2018-12-08T04:52:42.582Z,8.13
2018-12-08T04:55:11.121Z,8.20
2018-12-08T04:57:38.687Z,8.21
2018-12-08T05:00:06.873Z,8.28
2018-12-08T05:02:34.385Z,8.30
2018-12-08T05:05:02.028Z,8.26
2018-12-08T05:07:30.616Z,8.23
2018-12-08T05:09:58.153Z,8.28
2018-12-08T05:12:25.800Z,8.27
2018-12-08T05:14:53.292Z,8.27
2018-12-08T05:17:20.850Z,8.33
2018-12-08T05:19:48.350Z,8.30
2018-12-08T05:22:15.863Z,8.29
2018-12-08T05:24:43.383Z,8.35
2018-12-08T05:27:10.938Z,8.39
2018-12-08T05:29:38.794Z,8.47
2018-12-08T05:32:06.354Z,8.47
2018-12-08T05:34:33.880Z,8.53
2018-12-08T05:37:01.404Z,8.54
2018-12-08T05:39:29.006Z,8.59
2018-12-08T05:41:56.969Z,8.50
2018-12-08T05:44:25.473Z,8.52
2018-12-08T05:46:53.099Z,8.58
2018-12-08T05:49:21.266Z,8.56
2018-12-08T05:51:48.777Z,8.55
2018-12-08T05:54:16.265Z,8.56
2018-12-08T05:56:44.614Z,8.54
2018-12-08T05:59:12.671Z,8.52
2018-12-08T06:01:40.215Z,8.54
2018-12-08T06:04:07.715Z,8.61
2018-12-08T06:06:35.270Z,8.65
2018-12-08T06:09:03.426Z,8.66
2018-12-08T06:11:30.936Z,8.62
2018-12-08T06:13:58.468Z,8.58
2018-12-08T06:16:26.004Z,8.53
2018-12-08T06:18:53.567Z,8.57
2018-12-08T06:21:34.994Z,8.57
2018-12-08T06:24:02.619Z,8.62
2018-12-08T06:26:31.625Z,8.63
2018-12-08T06:28:59.166Z,8.58
2018-12-08T06:31:27.566Z,8.62
2018-12-08T06:33:55.032Z,8.68
2018-12-08T06:36:22.561Z,8.65
2018-12-08T06:38:50.077Z,8.69
2018-12-08T06:41:18.603Z,8.68
2018-12-08T06:43:46.213Z,8.67
2018-12-08T06:46:13.764Z,8.70
2018-12-08T06:48:42.328Z,8.72
2018-12-08T06:51:09.864Z,8.71
2018-12-08T06:53:37.450Z,8.70
2018-12-08T06:56:04.977Z,8.65
2018-12-08T06:58:32.495Z,8.61
2018-12-08T07:01:00.114Z,8.59
2018-12-08T07:03:27.681Z,8.62
2018-12-08T07:05:56.202Z,8.68
2018-12-08T07:08:23.687Z,8.69
2018-12-08T07:10:51.576Z,8.69
2018-12-08T07:13:19.144Z,8.68
2018-12-08T07:15:46.681Z,8.63
2018-12-08T07:18:14.202Z,8.66
2018-12-08T07:20:42.326Z,8.69
2018-12-08T07:23:09.810Z,8.71
2018-12-08T07:25:37.375Z,8.71
2018-12-08T07:28:04.992Z,8.71
2018-12-08T07:30:32.673Z,8.75
2018-12-08T07:33:00.270Z,8.67
2018-12-08T07:35:27.825Z,8.70
2018-12-08T07:37:55.439Z,8.74
2018-12-08T07:40:22.921Z,8.78
2018-12-08T07:42:50.506Z,8.78
2018-12-08T07:45:18.154Z,8.80
2018-12-08T07:47:45.754Z,8.78
2018-12-08T07:50:14.188Z,8.80
2018-12-08T07:52:41.692Z,8.77
2018-12-08T07:55:09.439Z,8.84
2018-12-08T07:57:36.966Z,8.84
2018-12-08T08:00:07.266Z,8.68
2018-12-08T08:02:34.811Z,8.72
2018-12-08T08:05:02.484Z,8.73
2018-12-08T08:07:29.976Z,8.78
2018-12-08T08:09:57.498Z,8.73
2018-12-08T08:12:25.075Z,8.77
2018-12-08T08:14:52.621Z,8.78
2018-12-08T08:17:20.258Z,8.73
2018-12-08T08:19:47.766Z,8.74
2018-12-08T08:22:15.302Z,8.75
2018-12-08T08:24:42.842Z,8.75
2018-12-08T08:27:10.370Z,8.72
2018-12-08T08:29:38.004Z,8.76
2018-12-08T08:32:05.558Z,8.76
2018-12-08T08:34:33.112Z,8.78
2018-12-08T08:37:00.709Z,8.82
2018-12-08T08:39:28.544Z,8.87
2018-12-08T08:41:56.107Z,8.93
2018-12-08T08:44:23.623Z,9.05
2018-12-08T08:46:51.198Z,9.09
2018-12-08T08:49:19.554Z,9.08
2018-12-08T08:51:47.082Z,9.03
2018-12-08T08:54:14.609Z,9.04
2018-12-08T08:56:42.115Z,9.05
2018-12-08T08:59:09.707Z,9.06
2018-12-08T09:01:37.226Z,9.08
2018-12-08T09:04:04.718Z,9.09
2018-12-08T09:06:32.533Z,9.10
2018-12-08T09:09:00.012Z,9.10
2018-12-08T09:11:27.628Z,9.05
2018-12-08T09:13:55.238Z,9.06
2018-12-08T09:16:22.897Z,9.06
2018-12-08T09:18:50.387Z,9.06
2018-12-08T09:21:18.644Z,9.04
2018-12-08T09:23:46.147Z,9.07
2018-12-08T09:26:13.715Z,9.07
2018-12-08T09:28:41.262Z,9.07
2018-12-08T09:31:08.899Z,9.12
2018-12-08T09:33:36.432Z,9.17
2018-12-08T09:36:04.143Z,9.10
2018-12-08T09:38:31.843Z,9.10
2018-12-08T09:40:59.474Z,9.16
2018-12-08T09:43:27.666Z,9.16
2018-12-08T09:45:55.322Z,9.12
2018-12-08T09:48:24.376Z,9.13
2018-12-08T09:50:52.681Z,9.11
2018-12-08T09:53:21.377Z,9.09
2018-12-08T09:55:49.004Z,9.10
2018-12-08T09:58:18.187Z,9.18
2018-12-08T10:00:46.770Z,9.16
2018-12-08T10:03:14.267Z,9.17
2018-12-08T10:05:41.837Z,9.15
2018-12-08T10:08:10.872Z,9.16
2018-12-08T10:10:39.317Z,9.18
2018-12-08T10:13:07.226Z,9.19
2018-12-08T10:15:35.473Z,9.19
2018-12-08T10:18:04.522Z,9.21
2018-12-08T10:20:32.097Z,9.13
2018-12-08T10:22:59.748Z,9.15
2018-12-08T10:25:27.353Z,9.15
2018-12-08T10:27:56.517Z,9.21
2018-12-08T10:30:24.281Z,9.24
2018-12-08T10:32:51.851Z,9.30
2018-12-08T10:35:19.467Z,9.25
2018-12-08T10:37:47.014Z,9.28
2018-12-08T10:40:14.544Z,9.27
2018-12-08T10:42:42.205Z,9.16
2018-12-08T10:45:09.793Z,9.15
2018-12-08T10:47:37.308Z,9.13
2018-12-08T10:50:06.669Z,9.05
2018-12-08T10:52:34.195Z,9.12
2018-12-08T10:55:01.715Z,9.18
2018-12-08T10:57:29.313Z,9.23
2018-12-08T10:59:56.895Z,9.22
2018-12-08T11:02:31.378Z,9.24
2018-12-08T11:04:59.727Z,9.13
2018-12-08T11:07:27.325Z,9.14
2018-12-08T11:09:54.863Z,9.12
2018-12-08T11:12:22.401Z,9.07
2018-12-08T11:14:49.972Z,9.02
2018-12-08T11:17:17.503Z,9.02
2018-12-08T11:19:45.012Z,8.99
2018-12-08T11:22:13.152Z,8.94
2018-12-08T11:24:40.777Z,8.95
2018-12-08T11:27:10.673Z,8.96
2018-12-08T11:29:38.169Z,8.89
2018-12-08T11:32:05.734Z,8.95
2018-12-08T11:34:33.294Z,8.91
2018-12-08T11:37:03.466Z,8.88
2018-12-08T11:39:30.976Z,8.89
2018-12-08T11:41:58.811Z,8.92
2018-12-08T11:44:26.676Z,8.90
2018-12-08T11:46:56.264Z,8.78
2018-12-08T11:49:23.815Z,8.68
2018-12-08T11:51:52.892Z,8.60
2018-12-08T11:54:20.782Z,8.63
2018-12-08T11:56:48.346Z,8.73
2018-12-08T11:59:17.450Z,8.70
2018-12-08T12:01:45.117Z,8.74
2018-12-08T12:04:13.361Z,8.72
2018-12-08T12:06:40.879Z,8.76
2018-12-08T12:09:08.467Z,8.74
2018-12-08T12:11:36.020Z,8.81
2018-12-08T12:14:03.580Z,8.81
2018-12-08T12:16:31.110Z,8.78
2018-12-08T12:18:58.671Z,8.81
2018-12-08T12:21:26.212Z,8.86
2018-12-08T12:23:53.913Z,8.94
2018-12-08T12:26:21.509Z,8.96
2018-12-08T12:28:49.097Z,8.99
2018-12-08T12:31:16.997Z,8.98
2018-12-08T12:33:44.502Z,8.91
2018-12-08T12:36:12.782Z,8.89
2018-12-08T12:38:40.335Z,8.85
2018-12-08T12:41:07.864Z,8.93
2018-12-08T12:43:35.384Z,8.89
2018-12-08T12:46:02.933Z,9.02
2018-12-08T12:48:30.524Z,9.09
2018-12-08T12:50:58.024Z,9.12
2018-12-08T12:53:25.888Z,9.17
2018-12-08T12:55:53.427Z,9.24
2018-12-08T12:58:20.930Z,9.30
2018-12-08T13:00:48.445Z,9.37
2018-12-08T13:03:16.043Z,9.42
2018-12-08T13:05:43.556Z,9.42
2018-12-08T13:08:11.066Z,9.42
2018-12-08T13:10:38.570Z,9.44
2018-12-08T13:13:06.116Z,9.50
2018-12-08T13:15:33.668Z,9.54
2018-12-08T13:18:01.591Z,9.56
2018-12-08T13:20:29.118Z,9.55
2018-12-08T13:22:56.655Z,9.57
2018-12-08T13:25:24.363Z,9.63
2018-12-08T13:27:52.035Z,9.59
2018-12-08T13:30:19.646Z,9.65
2018-12-08T13:32:48.067Z,9.72
2018-12-08T13:35:28.647Z,9.78
2018-12-08T13:37:56.236Z,9.80
2018-12-08T13:40:24.049Z,9.84
2018-12-08T13:42:51.605Z,9.79
2018-12-08T13:45:19.702Z,9.72
2018-12-08T13:47:47.230Z,9.70
2018-12-08T13:50:14.890Z,9.70
2018-12-08T13:52:42.458Z,9.72
2018-12-08T13:55:09.991Z,9.73
2018-12-08T13:57:37.478Z,9.70
2018-12-08T14:00:05.826Z,9.73
2018-12-08T14:02:33.381Z,9.75
2018-12-08T14:05:01.485Z,9.73
2018-12-08T14:07:29.046Z,9.72
2018-12-08T14:09:56.594Z,9.77
2018-12-08T14:12:24.132Z,9.78
2018-12-08T14:14:51.651Z,9.79
2018-12-08T14:17:19.217Z,9.80
2018-12-08T14:19:46.686Z,9.86
2018-12-08T14:22:14.254Z,9.84
2018-12-08T14:24:41.835Z,9.82
2018-12-08T14:27:09.759Z,9.79
2018-12-08T14:29:37.250Z,9.79
2018-12-08T14:32:04.876Z,9.75
2018-12-08T14:34:32.375Z,9.71
2018-12-08T14:36:59.885Z,9.74
2018-12-08T14:39:27.636Z,9.71
2018-12-08T14:41:55.227Z,9.68
2018-12-08T14:44:22.735Z,9.74
2018-12-08T14:46:50.310Z,9.73
2018-12-08T14:49:17.913Z,9.71
2018-12-08T14:51:45.433Z,9.70
2018-12-08T14:54:12.996Z,9.71
2018-12-08T14:56:40.477Z,9.69
2018-12-08T14:59:08.021Z,9.65
2018-12-08T15:01:35.706Z,9.60
2018-12-08T15:04:03.457Z,9.60
2018-12-08T15:06:33.124Z,9.53
2018-12-08T15:09:01.706Z,9.52
2018-12-08T15:11:29.969Z,9.51
2018-12-08T15:13:57.720Z,9.50
2018-12-08T15:16:25.330Z,9.48
2018-12-08T15:18:52.807Z,9.47
2018-12-08T15:21:20.847Z,9.43
2018-12-08T15:23:48.509Z,9.38
2018-12-08T15:26:16.234Z,9.36
2018-12-08T15:28:43.736Z,9.32
2018-12-08T15:31:11.290Z,9.30
2018-12-08T15:33:39.525Z,9.28
2018-12-08T15:36:07.862Z,9.31
2018-12-08T15:38:35.560Z,9.29
2018-12-08T15:41:03.193Z,9.30
2018-12-08T15:43:30.690Z,9.26
2018-12-08T15:45:58.198Z,9.28
2018-12-08T15:48:25.710Z,9.27
2018-12-08T15:50:55.011Z,9.24
2018-12-08T15:53:22.611Z,9.32
2018-12-08T15:55:50.237Z,9.36
2018-12-08T15:58:18.640Z,9.40
2018-12-08T16:00:46.460Z,9.42
2018-12-08T16:03:14.042Z,9.45
2018-12-08T16:05:42.650Z,9.50
2018-12-08T16:08:10.160Z,9.51
2018-12-08T16:10:37.732Z,9.54
2018-12-08T16:13:05.283Z,9.55
2018-12-08T16:15:32.758Z,9.53
2018-12-08T16:18:00.329Z,9.51
2018-12-08T16:20:27.821Z,9.53
2018-12-08T16:22:56.261Z,9.51
2018-12-08T16:25:25.246Z,9.46
2018-12-08T16:27:52.902Z,9.39
2018-12-08T16:30:20.399Z,9.34
2018-12-08T16:32:47.923Z,9.31
2018-12-08T16:35:15.544Z,9.22
2018-12-08T16:37:43.037Z,9.12
2018-12-08T16:40:10.638Z,9.09
2018-12-08T16:42:38.355Z,9.08
2018-12-08T16:45:06.686Z,9.11
2018-12-08T16:47:34.153Z,9.09
2018-12-08T16:50:01.831Z,9.08
2018-12-08T16:52:30.303Z,9.12
2018-12-08T16:54:57.812Z,9.10
2018-12-08T16:57:25.440Z,9.14
2018-12-08T16:59:52.980Z,9.10
2018-12-08T17:02:20.893Z,9.15
2018-12-08T17:04:48.403Z,9.15
2018-12-08T17:07:16.485Z,9.20
2018-12-08T17:09:44.420Z,9.20
2018-12-08T17:12:12.142Z,9.19
2018-12-08T17:14:39.732Z,9.21
2018-12-08T17:17:07.247Z,9.22
2018-12-08T17:19:35.818Z,9.21
2018-12-08T17:22:04.965Z,9.25
2018-12-08T17:24:32.451Z,9.29
2018-12-08T17:27:01.683Z,9.28
2018-12-08T17:29:30.178Z,9.29
2018-12-08T17:31:57.820Z,9.28
2018-12-08T17:34:25.438Z,9.28
2018-12-08T17:36:52.931Z,9.31
2018-12-08T17:39:20.495Z,9.36
2018-12-08T17:41:48.086Z,9.38
2018-12-08T17:44:15.607Z,9.41
2018-12-08T17:46:43.144Z,9.43
2018-12-08T17:49:10.611Z,9.43
2018-12-08T17:51:38.204Z,9.40
2018-12-08T17:54:05.690Z,9.42
2018-12-08T17:56:33.276Z,9.44
2018-12-08T17:59:00.995Z,9.40
2018-12-08T18:01:28.642Z,9.38
2018-12-08T18:03:56.432Z,9.35
2018-12-08T18:06:25.142Z,9.39
2018-12-08T18:08:52.680Z,9.38
2018-12-08T18:11:20.928Z,9.36
2018-12-08T18:13:48.387Z,9.36
2018-12-08T18:16:16.009Z,9.31
2018-12-08T18:18:43.682Z,9.33
2018-12-08T18:21:11.329Z,9.33
2018-12-08T18:23:39.659Z,9.36
2018-12-08T18:26:07.166Z,9.36
2018-12-08T18:28:35.685Z,9.39
2018-12-08T18:31:03.278Z,9.34
2018-12-08T18:33:31.714Z,9.41
2018-12-08T18:35:59.298Z,9.40
2018-12-08T18:38:27.076Z,9.42
2018-12-08T18:40:54.592Z,9.42
2018-12-08T18:43:22.142Z,9.45
2018-12-08T18:45:49.693Z,9.47
2018-12-08T18:48:17.187Z,9.43
2018-12-08T18:50:44.722Z,9.45
2018-12-08T18:53:13.170Z,9.45
2018-12-08T18:55:40.697Z,9.46
2018-12-08T18:58:08.207Z,9.45
2018-12-08T19:00:36.011Z,9.46
2018-12-08T19:03:04.282Z,9.46
2018-12-08T19:05:31.814Z,9.45
2018-12-08T19:07:59.347Z,9.50
2018-12-08T19:10:26.932Z,9.52
2018-12-08T19:12:54.462Z,9.52
2018-12-08T19:15:21.951Z,9.54
2018-12-08T19:17:50.332Z,9.53
2018-12-08T19:20:17.844Z,9.55
2018-12-08T19:22:45.492Z,9.57
2018-12-08T19:25:13.089Z,9.56
2018-12-08T19:27:40.695Z,9.60
2018-12-08T19:30:09.375Z,9.64
2018-12-08T19:32:36.882Z,9.66
2018-12-08T19:35:05.864Z,9.64
2018-12-08T19:37:33.331Z,9.70
2018-12-08T19:40:00.899Z,9.67
2018-12-08T19:42:29.193Z,9.68
2018-12-08T19:44:58.176Z,9.66
2018-12-08T19:47:26.352Z,9.71
2018-12-08T19:49:53.982Z,9.69
2018-12-08T19:52:21.893Z,9.71
2018-12-08T19:54:49.418Z,9.72
2018-12-08T19:57:16.977Z,9.74
2018-12-08T19:59:44.821Z,9.79
2018-12-08T20:02:13.130Z,9.81
2018-12-08T20:04:40.647Z,9.82
2018-12-08T20:07:08.519Z,9.83
2018-12-08T20:09:36.026Z,9.86
2018-12-08T20:12:03.654Z,9.90
2018-12-08T20:14:31.184Z,9.89
2018-12-08T20:16:58.717Z,9.91
2018-12-08T20:19:26.496Z,9.88
2018-12-08T20:21:54.189Z,9.90
2018-12-08T20:24:22.313Z,9.91
2018-12-08T20:26:50.589Z,9.89
2018-12-08T20:29:18.101Z,9.85
2018-12-08T20:31:45.600Z,9.74
2018-12-08T20:34:13.917Z,9.74
2018-12-08T20:36:41.588Z,9.75
2018-12-08T20:39:09.202Z,9.76
2018-12-08T20:41:36.752Z,9.75
2018-12-08T20:44:05.045Z,9.75
2018-12-08T20:46:33.028Z,9.73
2018-12-08T20:49:00.593Z,9.65
2018-12-08T20:51:28.098Z,9.58
2018-12-08T20:53:55.572Z,9.51
2018-12-08T20:56:23.201Z,9.54
2018-12-08T20:58:50.730Z,9.51
2018-12-08T21:01:18.225Z,9.49
2018-12-08T21:03:45.807Z,9.45
2018-12-08T21:06:14.470Z,9.45
2018-12-08T21:08:42.019Z,9.43
2018-12-08T21:11:09.592Z,9.43
2018-12-08T21:13:37.160Z,9.42
2018-12-08T21:16:04.795Z,9.39
2018-12-08T21:18:32.348Z,9.37
2018-12-08T21:20:59.867Z,9.32
2018-12-08T21:23:27.478Z,9.34
2018-12-08T21:25:55.030Z,9.35
2018-12-08T21:28:22.722Z,9.36
2018-12-08T21:30:50.261Z,9.36
2018-12-08T21:33:17.780Z,9.35
2018-12-08T21:35:46.219Z,9.36
2018-12-08T21:38:13.796Z,9.38
2018-12-08T21:40:41.301Z,9.33
2018-12-08T21:43:08.928Z,9.39
2018-12-08T21:45:36.655Z,9.44
2018-12-08T21:48:04.276Z,9.44
2018-12-08T21:50:32.675Z,9.49
2018-12-08T21:53:01.128Z,9.50
2018-12-08T21:55:29.232Z,9.51
2018-12-08T21:57:57.384Z,9.48
2018-12-08T22:00:24.891Z,9.56
2018-12-08T22:02:53.328Z,9.58
2018-12-08T22:05:20.913Z,9.58
2018-12-08T22:07:48.550Z,9.58
2018-12-08T22:10:16.144Z,9.59
2018-12-08T22:12:44.050Z,9.60
2018-12-08T22:15:15.595Z,9.58
2018-12-08T22:17:43.602Z,9.56
2018-12-08T22:20:11.152Z,9.57
2018-12-08T22:22:38.692Z,9.55
2018-12-08T22:25:06.500Z,9.59
2018-12-08T22:27:34.037Z,9.63
2018-12-08T22:30:01.537Z,9.64
2018-12-08T22:32:29.969Z,9.66
2018-12-08T22:34:58.907Z,9.71
2018-12-08T22:37:26.449Z,9.72
2018-12-08T22:39:54.005Z,9.77
2018-12-08T22:42:22.268Z,9.82
2018-12-08T22:44:49.763Z,9.84
2018-12-08T22:47:17.360Z,9.88
2018-12-08T22:49:44.940Z,9.92
2018-12-08T22:52:13.740Z,9.95
2018-12-08T22:54:41.544Z,9.90
2018-12-08T22:57:09.220Z,9.92
2018-12-08T22:59:37.639Z,9.88
2018-12-08T23:02:05.539Z,9.88
2018-12-08T23:04:34.495Z,9.94
2018-12-08T23:07:02.620Z,9.95
2018-12-08T23:09:30.328Z,9.95
2018-12-08T23:11:59.444Z,9.89
2018-12-08T23:14:27.307Z,9.92
2018-12-08T23:16:54.884Z,9.94
2018-12-08T23:19:22.924Z,9.92
2018-12-08T23:21:50.413Z,9.95
2018-12-08T23:24:17.934Z,9.96
2018-12-08T23:26:45.828Z,9.95
2018-12-08T23:29:13.306Z,9.94
2018-12-08T23:31:41.860Z,9.95
2018-12-08T23:34:09.371Z,9.91
2018-12-08T23:36:37.081Z,9.91
2018-12-08T23:39:06.143Z,9.91
2018-12-08T23:41:33.682Z,9.94
2018-12-08T23:44:01.251Z,9.89
2018-12-08T23:46:28.754Z,9.84
2018-12-08T23:48:56.294Z,9.86
2018-12-08T23:51:23.794Z,9.86
2018-12-08T23:53:51.389Z,9.86
2018-12-08T23:56:18.965Z,9.85
2018-12-08T23:58:46.546Z,9.84
